Junedale, Pennsylvania
Current Conditions -  °F | °C
As of 11:35 AM on Wednesday 22 Oct 2014 (Local Time) from KHZL Reporting Station
Drizzle Drizzle  
Wind Chill: 44°   Ceiling: 500
Heat Index: 48°   Visibility: 7mi
Dew Point: 46°   Wind: 9mph
Humidity: 93%   Direction: 360°N
Pressure: 30.03"   Gusts: NA
Location:  40.92°N, 75.94°W
Report Text: KHZL 221535Z AUTO 36008KT 7SM DZ OVC005 09/08 A3003 RMK AO2 P0001
Loading
Personal Weather Stations






























Interactive Weather Map
Tropical Storm Tracking
New forecast layout! Learn more

10-Day Weather Forecast

Advertisements
Track Severe Weather on mobile